sensor_id;sensor_type;location;lat;lon;timestamp;pressure;altitude;pressure_sealevel;temperature;humidity
28027;BME280;15344;52.342;-1.290;2023-01-27T00:01:01;101823.61;;;9.13;78.55
28027;BME280;15344;52.342;-1.290;2023-01-27T00:03:26;101816.10;;;9.67;76.61
28027;BME280;15344;52.342;-1.290;2023-01-27T00:05:51;101811.15;;;9.33;76.77
28027;BME280;15344;52.342;-1.290;2023-01-27T00:08:17;101813.43;;;8.24;79.16
28027;BME280;15344;52.342;-1.290;2023-01-27T00:10:42;101813.99;;;9.04;78.08
28027;BME280;15344;52.342;-1.290;2023-01-27T00:13:09;101808.05;;;9.33;76.99
28027;BME280;15344;52.342;-1.290;2023-01-27T00:15:33;101804.76;;;9.60;78.70
28027;BME280;15344;52.342;-1.290;2023-01-27T00:17:59;101805.82;;;9.65;77.85
28027;BME280;15344;52.342;-1.290;2023-01-27T00:20:24;101804.21;;;9.69;76.54
28027;BME280;15344;52.342;-1.290;2023-01-27T00:22:49;101806.01;;;9.13;78.88
28027;BME280;15344;52.342;-1.290;2023-01-27T00:25:15;101806.88;;;9.15;77.63
28027;BME280;15344;52.342;-1.290;2023-01-27T00:27:40;101809.87;;;9.14;78.02
28027;BME280;15344;52.342;-1.290;2023-01-27T00:30:06;101802.56;;;9.16;77.99
28027;BME280;15344;52.342;-1.290;2023-01-27T00:32:31;101798.43;;;9.22;77.85
28027;BME280;15344;52.342;-1.290;2023-01-27T00:34:57;101807.71;;;8.70;79.72
28027;BME280;15344;52.342;-1.290;2023-01-27T00:37:22;101807.53;;;9.02;78.53
28027;BME280;15344;52.342;-1.290;2023-01-27T00:39:47;101807.88;;;9.23;77.88
28027;BME280;15344;52.342;-1.290;2023-01-27T00:42:13;101808.38;;;9.57;76.85
28027;BME280;15344;52.342;-1.290;2023-01-27T00:44:38;101809.96;;;7.97;82.44
28027;BME280;15344;52.342;-1.290;2023-01-27T00:47:04;101805.58;;;8.75;78.49
28027;BME280;15344;52.342;-1.290;2023-01-27T00:49:30;101803.92;;;9.03;78.91
28027;BME280;15344;52.342;-1.290;2023-01-27T00:51:55;101807.99;;;8.52;79.90
28027;BME280;15344;52.342;-1.290;2023-01-27T00:54:21;101808.44;;;8.98;79.87
28027;BME280;15344;52.342;-1.290;2023-01-27T00:56:46;101806.78;;;8.51;80.06
28027;BME280;15344;52.342;-1.290;2023-01-27T00:59:12;101805.73;;;8.41;80.72
28027;BME280;15344;52.342;-1.290;2023-01-27T01:01:37;101807.68;;;8.89;78.19
28027;BME280;15344;52.342;-1.290;2023-01-27T01:04:03;101801.80;;;8.51;79.39
28027;BME280;15344;52.342;-1.290;2023-01-27T01:06:28;101794.15;;;8.10;80.05
28027;BME280;15344;52.342;-1.290;2023-01-27T01:08:55;101791.27;;;7.16;82.97
28027;BME280;15344;52.342;-1.290;2023-01-27T01:11:21;101784.71;;;7.29;84.89
28027;BME280;15344;52.342;-1.290;2023-01-27T01:13:47;101781.27;;;7.92;83.68
28027;BME280;15344;52.342;-1.290;2023-01-27T01:16:12;101781.56;;;7.98;81.98
28027;BME280;15344;52.342;-1.290;2023-01-27T01:18:36;101777.25;;;8.48;81.52
28027;BME280;15344;52.342;-1.290;2023-01-27T01:21:02;101782.38;;;8.41;81.35
28027;BME280;15344;52.342;-1.290;2023-01-27T01:23:27;101784.43;;;8.18;81.86
28027;BME280;15344;52.342;-1.290;2023-01-27T01:25:53;101784.04;;;7.38;84.20
28027;BME280;15344;52.342;-1.290;2023-01-27T01:28:18;101788.36;;;8.01;86.34
28027;BME280;15344;52.342;-1.290;2023-01-27T01:30:44;101789.28;;;6.40;93.68
28027;BME280;15344;52.342;-1.290;2023-01-27T01:33:10;101782.93;;;6.51;91.12
28027;BME280;15344;52.342;-1.290;2023-01-27T01:35:37;101777.01;;;8.09;87.39
28027;BME280;15344;52.342;-1.290;2023-01-27T01:38:01;101779.84;;;6.50;95.68
28027;BME280;15344;52.342;-1.290;2023-01-27T01:40:26;101777.62;;;6.71;98.48
28027;BME280;15344;52.342;-1.290;2023-01-27T01:42:54;101764.82;;;7.69;91.48
28027;BME280;15344;52.342;-1.290;2023-01-27T01:47:43;101768.72;;;7.71;88.77
28027;BME280;15344;52.342;-1.290;2023-01-27T01:50:08;101767.92;;;7.66;90.31
28027;BME280;15344;52.342;-1.290;2023-01-27T01:52:33;101768.58;;;7.80;89.28
28027;BME280;15344;52.342;-1.290;2023-01-27T01:54:59;101765.44;;;7.51;90.91
28027;BME280;15344;52.342;-1.290;2023-01-27T01:57:26;101774.88;;;6.71;94.48
28027;BME280;15344;52.342;-1.290;2023-01-27T01:59:53;101767.14;;;7.23;92.60
28027;BME280;15344;52.342;-1.290;2023-01-27T02:02:18;101770.57;;;6.80;95.40
28027;BME280;15344;52.342;-1.290;2023-01-27T02:04:46;101774.35;;;6.87;96.95
28027;BME280;15344;52.342;-1.290;2023-01-27T02:07:10;101776.05;;;5.85;100.00
28027;BME280;15344;52.342;-1.290;2023-01-27T02:09:32;101776.31;;;6.58;100.00
28027;BME280;15344;52.342;-1.290;2023-01-27T02:11:58;101772.11;;;7.04;97.11
28027;BME280;15344;52.342;-1.290;2023-01-27T02:14:24;101769.35;;;7.13;94.96
28027;BME280;15344;52.342;-1.290;2023-01-27T02:16:49;101772.03;;;6.90;97.97
28027;BME280;15344;52.342;-1.290;2023-01-27T02:19:21;101777.30;;;6.30;100.00
28027;BME280;15344;52.342;-1.290;2023-01-27T02:21:40;101773.57;;;5.79;100.00
28027;BME280;15344;52.342;-1.290;2023-01-27T02:24:05;101777.44;;;6.67;100.00
28027;BME280;15344;52.342;-1.290;2023-01-27T02:26:33;101768.62;;;7.71;95.29
28027;BME280;15344;52.342;-1.290;2023-01-27T02:29:01;101775.94;;;7.15;96.67
28027;BME280;15344;52.342;-1.290;2023-01-27T02:31:22;101771.87;;;7.44;95.61
28027;BME280;15344;52.342;-1.290;2023-01-27T02:33:48;101770.25;;;7.85;92.30
28027;BME280;15344;52.342;-1.290;2023-01-27T02:36:15;101771.90;;;7.65;94.16
28027;BME280;15344;52.342;-1.290;2023-01-27T02:38:41;101772.05;;;6.96;96.26
28027;BME280;15344;52.342;-1.290;2023-01-27T02:41:08;101769.82;;;7.82;91.96
28027;BME280;15344;52.342;-1.290;2023-01-27T02:43:29;101765.19;;;8.03;92.61
28027;BME280;15344;52.342;-1.290;2023-01-27T02:45:55;101760.02;;;7.44;93.99
28027;BME280;15344;52.342;-1.290;2023-01-27T02:48:20;101762.30;;;6.20;100.00
28027;BME280;15344;52.342;-1.290;2023-01-27T02:50:46;101757.84;;;7.61;95.01
28027;BME280;15344;52.342;-1.290;2023-01-27T02:53:11;101757.66;;;7.75;93.35
28027;BME280;15344;52.342;-1.290;2023-01-27T02:55:37;101762.39;;;6.88;97.86
28027;BME280;15344;52.342;-1.290;2023-01-27T02:58:02;101759.31;;;7.40;96.15
28027;BME280;15344;52.342;-1.290;2023-01-27T03:00:36;101756.23;;;7.64;96.77
28027;BME280;15344;52.342;-1.290;2023-01-27T03:02:54;101754.68;;;7.37;97.47
28027;BME280;15344;52.342;-1.290;2023-01-27T03:05:19;101750.37;;;7.54;97.85
28027;BME280;15344;52.342;-1.290;2023-01-27T03:07:45;101747.76;;;7.27;100.00
28027;BME280;15344;52.342;-1.290;2023-01-27T03:10:10;101745.62;;;6.45;100.00
28027;BME280;15344;52.342;-1.290;2023-01-27T03:12:36;101737.59;;;7.83;99.18
28027;BME280;15344;52.342;-1.290;2023-01-27T03:15:01;101739.34;;;6.67;100.00
28027;BME280;15344;52.342;-1.290;2023-01-27T03:17:27;101739.95;;;6.87;100.00
28027;BME280;15344;52.342;-1.290;2023-01-27T03:19:52;101740.03;;;6.76;100.00
28027;BME280;15344;52.342;-1.290;2023-01-27T03:22:18;101740.75;;;6.26;100.00
28027;BME280;15344;52.342;-1.290;2023-01-27T03:24:44;101738.86;;;6.34;100.00
28027;BME280;15344;52.342;-1.290;2023-01-27T03:27:09;101737.23;;;6.75;100.00
28027;BME280;15344;52.342;-1.290;2023-01-27T03:29:34;101741.39;;;6.47;100.00
28027;BME280;15344;52.342;-1.290;2023-01-27T03:32:01;101742.41;;;5.87;100.00
28027;BME280;15344;52.342;-1.290;2023-01-27T03:34:26;101738.76;;;6.27;100.00
28027;BME280;15344;52.342;-1.290;2023-01-27T03:36:51;101734.32;;;7.58;100.00
28027;BME280;15344;52.342;-1.290;2023-01-27T03:39:17;101738.63;;;6.63;100.00
28027;BME280;15344;52.342;-1.290;2023-01-27T03:41:42;101738.10;;;6.78;100.00
28027;BME280;15344;52.342;-1.290;2023-01-27T03:44:09;101742.72;;;5.89;100.00
28027;BME280;15344;52.342;-1.290;2023-01-27T03:46:34;101740.86;;;6.26;100.00
28027;BME280;15344;52.342;-1.290;2023-01-27T03:49:00;101729.20;;;6.85;100.00
28027;BME280;15344;52.342;-1.290;2023-01-27T03:51:25;101733.08;;;6.77;100.00
28027;BME280;15344;52.342;-1.290;2023-01-27T03:53:50;101726.14;;;6.93;100.00
28027;BME280;15344;52.342;-1.290;2023-01-27T03:56:16;101739.22;;;6.91;100.00
28027;BME280;15344;52.342;-1.290;2023-01-27T03:58:41;101743.24;;;5.89;100.00
28027;BME280;15344;52.342;-1.290;2023-01-27T04:01:07;101746.32;;;6.02;100.00
28027;BME280;15344;52.342;-1.290;2023-01-27T04:03:32;101745.14;;;5.92;100.00
28027;BME280;15344;52.342;-1.290;2023-01-27T04:05:56;101739.59;;;5.28;100.00
28027;BME280;15344;52.342;-1.290;2023-01-27T04:08:21;101736.79;;;5.67;100.00
28027;BME280;15344;52.342;-1.290;2023-01-27T04:10:46;101741.69;;;6.07;100.00
28027;BME280;15344;52.342;-1.290;2023-01-27T04:13:11;101741.09;;;6.02;100.00
28027;BME280;15344;52.342;-1.290;2023-01-27T04:15:37;101742.76;;;6.57;100.00
28027;BME280;15344;52.342;-1.290;2023-01-27T04:18:03;101742.93;;;7.12;100.00
28027;BME280;15344;52.342;-1.290;2023-01-27T04:20:28;101741.51;;;5.08;100.00
28027;BME280;15344;52.342;-1.290;2023-01-27T04:22:53;101747.72;;;6.25;100.00
28027;BME280;15344;52.342;-1.290;2023-01-27T04:25:19;101741.33;;;6.66;100.00
28027;BME280;15344;52.342;-1.290;2023-01-27T04:27:44;101739.93;;;5.87;100.00
28027;BME280;15344;52.342;-1.290;2023-01-27T04:30:11;101739.36;;;6.30;100.00
28027;BME280;15344;52.342;-1.290;2023-01-27T04:32:35;101740.92;;;6.05;100.00
28027;BME280;15344;52.342;-1.290;2023-01-27T04:35:01;101739.40;;;6.29;100.00
28027;BME280;15344;52.342;-1.290;2023-01-27T04:37:26;101732.81;;;6.53;100.00
28027;BME280;15344;52.342;-1.290;2023-01-27T04:39:51;101730.15;;;6.34;100.00
28027;BME280;15344;52.342;-1.290;2023-01-27T04:42:17;101733.26;;;5.91;100.00
28027;BME280;15344;52.342;-1.290;2023-01-27T04:44:43;101729.08;;;6.94;100.00
28027;BME280;15344;52.342;-1.290;2023-01-27T04:47:08;101734.82;;;6.91;100.00
28027;BME280;15344;52.342;-1.290;2023-01-27T04:49:34;101738.14;;;6.44;100.00
28027;BME280;15344;52.342;-1.290;2023-01-27T04:52:00;101730.90;;;6.94;100.00
28027;BME280;15344;52.342;-1.290;2023-01-27T04:54:25;101737.84;;;5.59;100.00
28027;BME280;15344;52.342;-1.290;2023-01-27T04:56:56;101737.73;;;6.06;100.00
28027;BME280;15344;52.342;-1.290;2023-01-27T04:59:16;101731.09;;;6.81;100.00
28027;BME280;15344;52.342;-1.290;2023-01-27T05:01:41;101732.70;;;6.32;100.00
28027;BME280;15344;52.342;-1.290;2023-01-27T05:04:06;101730.27;;;5.34;100.00
28027;BME280;15344;52.342;-1.290;2023-01-27T05:06:32;101730.19;;;5.74;100.00
28027;BME280;15344;52.342;-1.290;2023-01-27T05:08:57;101729.45;;;6.45;100.00
28027;BME280;15344;52.342;-1.290;2023-01-27T05:11:23;101729.30;;;5.64;100.00
28027;BME280;15344;52.342;-1.290;2023-01-27T05:13:48;101730.35;;;6.05;100.00
28027;BME280;15344;52.342;-1.290;2023-01-27T05:16:16;101731.05;;;6.30;100.00
28027;BME280;15344;52.342;-1.290;2023-01-27T05:18:40;101728.16;;;6.55;100.00
28027;BME280;15344;52.342;-1.290;2023-01-27T05:21:05;101724.07;;;6.37;100.00
28027;BME280;15344;52.342;-1.290;2023-01-27T05:23:29;101723.80;;;5.71;100.00
28027;BME280;15344;52.342;-1.290;2023-01-27T05:25:55;101728.98;;;5.22;100.00
28027;BME280;15344;52.342;-1.290;2023-01-27T05:28:21;101726.49;;;6.66;100.00
28027;BME280;15344;52.342;-1.290;2023-01-27T05:30:46;101732.76;;;6.29;100.00
28027;BME280;15344;52.342;-1.290;2023-01-27T05:33:12;101733.98;;;6.15;100.00
28027;BME280;15344;52.342;-1.290;2023-01-27T05:35:37;101728.65;;;4.81;100.00
28027;BME280;15344;52.342;-1.290;2023-01-27T05:38:02;101732.94;;;5.88;100.00
28027;BME280;15344;52.342;-1.290;2023-01-27T05:40:27;101732.54;;;6.75;100.00
28027;BME280;15344;52.342;-1.290;2023-01-27T05:42:53;101733.30;;;6.79;100.00
28027;BME280;15344;52.342;-1.290;2023-01-27T05:45:18;101730.05;;;6.76;100.00
28027;BME280;15344;52.342;-1.290;2023-01-27T05:47:48;101728.86;;;6.40;100.00
28027;BME280;15344;52.342;-1.290;2023-01-27T05:50:10;101733.49;;;6.47;100.00
28027;BME280;15344;52.342;-1.290;2023-01-27T05:52:35;101739.91;;;6.30;100.00
28027;BME280;15344;52.342;-1.290;2023-01-27T05:55:01;101741.15;;;7.59;100.00
28027;BME280;15344;52.342;-1.290;2023-01-27T05:57:26;101743.45;;;6.74;100.00
28027;BME280;15344;52.342;-1.290;2023-01-27T05:59:51;101739.77;;;7.09;100.00
28027;BME280;15344;52.342;-1.290;2023-01-27T06:02:17;101754.70;;;6.41;100.00
28027;BME280;15344;52.342;-1.290;2023-01-27T06:04:43;101753.22;;;6.95;100.00
28027;BME280;15344;52.342;-1.290;2023-01-27T06:07:08;101760.39;;;6.04;100.00
28027;BME280;15344;52.342;-1.290;2023-01-27T06:09:37;101757.98;;;7.25;100.00
28027;BME280;15344;52.342;-1.290;2023-01-27T06:11:59;101760.92;;;6.74;100.00
28027;BME280;15344;52.342;-1.290;2023-01-27T06:14:24;101759.47;;;7.54;100.00
28027;BME280;15344;52.342;-1.290;2023-01-27T06:16:50;101757.36;;;7.90;100.00
28027;BME280;15344;52.342;-1.290;2023-01-27T06:19:15;101761.49;;;8.03;100.00
28027;BME280;15344;52.342;-1.290;2023-01-27T06:21:41;101762.93;;;7.13;100.00
28027;BME280;15344;52.342;-1.290;2023-01-27T06:24:07;101764.15;;;8.06;100.00
28027;BME280;15344;52.342;-1.290;2023-01-27T06:26:32;101760.98;;;7.35;100.00
28027;BME280;15344;52.342;-1.290;2023-01-27T06:28:58;101770.75;;;6.06;100.00
28027;BME280;15344;52.342;-1.290;2023-01-27T06:31:23;101761.65;;;6.72;100.00
28027;BME280;15344;52.342;-1.290;2023-01-27T06:33:48;101758.20;;;6.86;100.00
28027;BME280;15344;52.342;-1.290;2023-01-27T06:36:16;101754.34;;;6.98;100.00
28027;BME280;15344;52.342;-1.290;2023-01-27T06:38:39;101757.70;;;7.68;100.00
28027;BME280;15344;52.342;-1.290;2023-01-27T06:41:05;101753.89;;;7.77;100.00
28027;BME280;15344;52.342;-1.290;2023-01-27T06:43:30;101755.97;;;7.92;100.00
28027;BME280;15344;52.342;-1.290;2023-01-27T06:45:56;101756.43;;;6.62;100.00
28027;BME280;15344;52.342;-1.290;2023-01-27T06:48:21;101745.95;;;7.53;100.00
28027;BME280;15344;52.342;-1.290;2023-01-27T06:50:46;101741.54;;;6.90;100.00
28027;BME280;15344;52.342;-1.290;2023-01-27T06:53:11;101746.33;;;7.28;100.00
28027;BME280;15344;52.342;-1.290;2023-01-27T06:55:37;101753.78;;;7.93;100.00
28027;BME280;15344;52.342;-1.290;2023-01-27T06:58:02;101755.18;;;7.73;100.00
28027;BME280;15344;52.342;-1.290;2023-01-27T07:00:27;101750.98;;;7.21;100.00
28027;BME280;15344;52.342;-1.290;2023-01-27T07:02:54;101761.99;;;5.99;100.00
28027;BME280;15344;52.342;-1.290;2023-01-27T07:05:18;101749.52;;;7.30;100.00
28027;BME280;15344;52.342;-1.290;2023-01-27T07:07:44;101749.80;;;6.48;100.00
28027;BME280;15344;52.342;-1.290;2023-01-27T07:10:10;101751.27;;;7.61;100.00
28027;BME280;15344;52.342;-1.290;2023-01-27T07:12:34;101747.01;;;7.85;100.00
28027;BME280;15344;52.342;-1.290;2023-01-27T07:15:01;101748.31;;;7.43;100.00
28027;BME280;15344;52.342;-1.290;2023-01-27T07:17:31;101750.73;;;8.39;100.00
28027;BME280;15344;52.342;-1.290;2023-01-27T07:19:51;101751.87;;;8.33;100.00
28027;BME280;15344;52.342;-1.290;2023-01-27T07:22:17;101753.30;;;7.85;100.00
28027;BME280;15344;52.342;-1.290;2023-01-27T07:24:43;101752.46;;;7.76;100.00
28027;BME280;15344;52.342;-1.290;2023-01-27T07:27:08;101753.64;;;7.61;100.00
28027;BME280;15344;52.342;-1.290;2023-01-27T07:29:34;101765.06;;;6.25;100.00
28027;BME280;15344;52.342;-1.290;2023-01-27T07:31:59;101769.77;;;5.76;100.00
28027;BME280;15344;52.342;-1.290;2023-01-27T07:34:25;101761.29;;;8.30;100.00
28027;BME280;15344;52.342;-1.290;2023-01-27T07:36:51;101771.12;;;6.54;100.00
28027;BME280;15344;52.342;-1.290;2023-01-27T07:39:16;101768.15;;;7.17;100.00
28027;BME280;15344;52.342;-1.290;2023-01-27T07:41:40;101767.98;;;7.97;100.00
28027;BME280;15344;52.342;-1.290;2023-01-27T07:44:06;101769.65;;;6.75;100.00
28027;BME280;15344;52.342;-1.290;2023-01-27T07:46:31;101765.13;;;8.52;100.00
28027;BME280;15344;52.342;-1.290;2023-01-27T07:48:57;101766.50;;;8.07;100.00
28027;BME280;15344;52.342;-1.290;2023-01-27T07:51:22;101768.94;;;8.69;100.00
28027;BME280;15344;52.342;-1.290;2023-01-27T07:53:47;101767.42;;;8.00;100.00
28027;BME280;15344;52.342;-1.290;2023-01-27T07:56:13;101763.59;;;8.27;99.93
28027;BME280;15344;52.342;-1.290;2023-01-27T07:58:39;101757.87;;;8.87;96.68
28027;BME280;15344;52.342;-1.290;2023-01-27T08:01:05;101756.82;;;8.09;97.77
28027;BME280;15344;52.342;-1.290;2023-01-27T08:03:29;101762.21;;;8.41;100.00
28027;BME280;15344;52.342;-1.290;2023-01-27T08:05:55;101772.83;;;6.82;100.00
28027;BME280;15344;52.342;-1.290;2023-01-27T08:08:20;101765.24;;;7.47;100.00
28027;BME280;15344;52.342;-1.290;2023-01-27T08:10:46;101765.97;;;7.81;100.00
28027;BME280;15344;52.342;-1.290;2023-01-27T08:13:11;101769.14;;;7.85;100.00
28027;BME280;15344;52.342;-1.290;2023-01-27T08:15:36;101767.57;;;7.92;99.40
28027;BME280;15344;52.342;-1.290;2023-01-27T08:18:02;101770.46;;;7.30;100.00
28027;BME280;15344;52.342;-1.290;2023-01-27T08:20:28;101776.91;;;6.95;100.00
28027;BME280;15344;52.342;-1.290;2023-01-27T08:22:53;101780.75;;;7.75;100.00
28027;BME280;15344;52.342;-1.290;2023-01-27T08:25:19;101779.71;;;8.42;100.00
28027;BME280;15344;52.342;-1.290;2023-01-27T08:27:48;101784.33;;;6.40;100.00
28027;BME280;15344;52.342;-1.290;2023-01-27T08:30:11;101782.65;;;7.69;100.00
28027;BME280;15344;52.342;-1.290;2023-01-27T08:32:36;101791.95;;;7.10;100.00
28027;BME280;15344;52.342;-1.290;2023-01-27T08:35:02;101791.22;;;7.80;100.00
28027;BME280;15344;52.342;-1.290;2023-01-27T08:37:27;101792.82;;;7.22;100.00
28027;BME280;15344;52.342;-1.290;2023-01-27T08:39:52;101796.19;;;7.51;100.00
28027;BME280;15344;52.342;-1.290;2023-01-27T08:42:18;101806.30;;;7.18;100.00
28027;BME280;15344;52.342;-1.290;2023-01-27T08:44:43;101807.23;;;8.12;100.00
28027;BME280;15344;52.342;-1.290;2023-01-27T08:47:08;101809.52;;;7.73;100.00
28027;BME280;15344;52.342;-1.290;2023-01-27T08:49:34;101809.68;;;8.72;96.74
28027;BME280;15344;52.342;-1.290;2023-01-27T08:51:59;101809.25;;;8.19;98.80
28027;BME280;15344;52.342;-1.290;2023-01-27T08:54:25;101803.57;;;8.68;96.50
28027;BME280;15344;52.342;-1.290;2023-01-27T08:56:50;101804.56;;;8.65;98.71
28027;BME280;15344;52.342;-1.290;2023-01-27T08:59:16;101809.15;;;8.24;98.09
28027;BME280;15344;52.342;-1.290;2023-01-27T09:01:42;101806.00;;;8.04;100.00
28027;BME280;15344;52.342;-1.290;2023-01-27T09:04:07;101806.29;;;8.40;98.54
28027;BME280;15344;52.342;-1.290;2023-01-27T09:06:33;101807.30;;;8.46;98.89
28027;BME280;15344;52.342;-1.290;2023-01-27T09:08:59;101804.96;;;7.58;100.00
28027;BME280;15344;52.342;-1.290;2023-01-27T09:11:23;101804.59;;;7.13;100.00
28027;BME280;15344;52.342;-1.290;2023-01-27T09:13:49;101800.04;;;7.56;100.00
28027;BME280;15344;52.342;-1.290;2023-01-27T09:16:14;101808.53;;;6.69;100.00
28027;BME280;15344;52.342;-1.290;2023-01-27T09:18:40;101805.97;;;7.02;100.00
28027;BME280;15344;52.342;-1.290;2023-01-27T09:21:05;101804.33;;;7.85;100.00
28027;BME280;15344;52.342;-1.290;2023-01-27T09:23:30;101805.97;;;7.45;100.00
28027;BME280;15344;52.342;-1.290;2023-01-27T09:25:56;101812.68;;;7.50;100.00
28027;BME280;15344;52.342;-1.290;2023-01-27T09:28:21;101815.96;;;8.04;100.00
28027;BME280;15344;52.342;-1.290;2023-01-27T09:30:47;101821.03;;;7.07;100.00
28027;BME280;15344;52.342;-1.290;2023-01-27T09:33:13;101822.61;;;6.87;100.00
28027;BME280;15344;52.342;-1.290;2023-01-27T09:35:42;101823.37;;;7.19;100.00
28027;BME280;15344;52.342;-1.290;2023-01-27T09:38:03;101821.84;;;7.20;100.00
28027;BME280;15344;52.342;-1.290;2023-01-27T09:40:31;101824.11;;;8.77;98.10
28027;BME280;15344;52.342;-1.290;2023-01-27T09:45:33;101838.59;;;6.97;100.00
28027;BME280;15344;52.342;-1.290;2023-01-27T09:47:54;101831.21;;;8.00;100.00
28027;BME280;15344;52.342;-1.290;2023-01-27T09:50:19;101837.42;;;6.70;100.00
28027;BME280;15344;52.342;-1.290;2023-01-27T09:52:48;101840.86;;;7.59;100.00
28027;BME280;15344;52.342;-1.290;2023-01-27T09:55:05;101835.65;;;8.34;100.00
28027;BME280;15344;52.342;-1.290;2023-01-27T09:57:35;101839.38;;;7.36;100.00
28027;BME280;15344;52.342;-1.290;2023-01-27T10:00:02;101836.08;;;7.98;100.00
28027;BME280;15344;52.342;-1.290;2023-01-27T10:02:29;101838.98;;;7.94;100.00
28027;BME280;15344;52.342;-1.290;2023-01-27T10:04:51;101847.56;;;7.77;100.00
28027;BME280;15344;52.342;-1.290;2023-01-27T10:07:21;101853.49;;;6.95;100.00
28027;BME280;15344;52.342;-1.290;2023-01-27T10:12:03;101846.32;;;7.66;100.00
28027;BME280;15344;52.342;-1.290;2023-01-27T10:14:31;101853.02;;;6.72;100.00
28027;BME280;15344;52.342;-1.290;2023-01-27T10:17:00;101849.98;;;8.16;100.00
28027;BME280;15344;52.342;-1.290;2023-01-27T10:19:28;101851.40;;;8.06;100.00
28027;BME280;15344;52.342;-1.290;2023-01-27T10:21:47;101853.05;;;8.19;100.00
28027;BME280;15344;52.342;-1.290;2023-01-27T10:24:11;101852.76;;;8.34;99.92
28027;BME280;15344;52.342;-1.290;2023-01-27T10:26:37;101853.61;;;9.18;96.56
28027;BME280;15344;52.342;-1.290;2023-01-27T10:29:04;101856.96;;;8.42;97.48
28027;BME280;15344;52.342;-1.290;2023-01-27T10:31:25;101853.93;;;8.10;99.59
28027;BME280;15344;52.342;-1.290;2023-01-27T10:33:51;101852.27;;;8.52;96.38
28027;BME280;15344;52.342;-1.290;2023-01-27T10:36:17;101854.00;;;9.01;95.49
28027;BME280;15344;52.342;-1.290;2023-01-27T10:38:44;101852.75;;;8.90;95.76
28027;BME280;15344;52.342;-1.290;2023-01-27T10:41:14;101859.59;;;8.79;95.00
28027;BME280;15344;52.342;-1.290;2023-01-27T10:43:36;101862.19;;;8.65;95.93
28027;BME280;15344;52.342;-1.290;2023-01-27T10:45:59;101855.79;;;7.78;98.23
28027;BME280;15344;52.342;-1.290;2023-01-27T10:48:32;101851.08;;;7.45;100.00
28027;BME280;15344;52.342;-1.290;2023-01-27T10:50:48;101855.11;;;7.72;100.00
28027;BME280;15344;52.342;-1.290;2023-01-27T10:53:13;101854.06;;;7.10;100.00
28027;BME280;15344;52.342;-1.290;2023-01-27T10:55:39;101849.76;;;8.03;98.22
28027;BME280;15344;52.342;-1.290;2023-01-27T10:58:05;101853.67;;;8.18;97.35
28027;BME280;15344;52.342;-1.290;2023-01-27T11:00:32;101853.85;;;8.82;94.63
28027;BME280;15344;52.342;-1.290;2023-01-27T11:02:57;101852.85;;;8.26;94.91
28027;BME280;15344;52.342;-1.290;2023-01-27T11:05:21;101848.36;;;9.24;92.08
28027;BME280;15344;52.342;-1.290;2023-01-27T11:07:46;101846.46;;;8.14;97.30
28027;BME280;15344;52.342;-1.290;2023-01-27T11:10:14;101845.72;;;7.82;98.06
28027;BME280;15344;52.342;-1.290;2023-01-27T11:12:35;101841.51;;;9.24;92.48
28027;BME280;15344;52.342;-1.290;2023-01-27T11:14:58;101839.35;;;8.58;94.22
28027;BME280;15344;52.342;-1.290;2023-01-27T11:17:28;101840.08;;;8.27;94.23
28027;BME280;15344;52.342;-1.290;2023-01-27T11:19:56;101846.46;;;9.06;91.28
28027;BME280;15344;52.342;-1.290;2023-01-27T11:22:20;101837.59;;;8.85;91.63
28027;BME280;15344;52.342;-1.290;2023-01-27T11:24:43;101830.13;;;9.53;88.71
28027;BME280;15344;52.342;-1.290;2023-01-27T11:27:12;101829.85;;;9.54;87.36
28027;BME280;15344;52.342;-1.290;2023-01-27T11:29:36;101832.60;;;8.20;95.40
28027;BME280;15344;52.342;-1.290;2023-01-27T11:32:02;101823.36;;;9.03;90.12
28027;BME280;15344;52.342;-1.290;2023-01-27T11:34:25;101821.97;;;8.33;93.05
28027;BME280;15344;52.342;-1.290;2023-01-27T11:36:47;101824.07;;;9.10;88.92
28027;BME280;15344;52.342;-1.290;2023-01-27T11:39:14;101826.13;;;8.46;91.33
28027;BME280;15344;52.342;-1.290;2023-01-27T11:41:41;101824.34;;;8.15;94.33
28027;BME280;15344;52.342;-1.290;2023-01-27T11:44:07;101819.93;;;8.38;91.33
28027;BME280;15344;52.342;-1.290;2023-01-27T11:46:30;101818.27;;;8.55;90.78
28027;BME280;15344;52.342;-1.290;2023-01-27T11:48:56;101821.00;;;7.30;97.55
28027;BME280;15344;52.342;-1.290;2023-01-27T11:51:22;101814.19;;;8.01;91.28
28027;BME280;15344;52.342;-1.290;2023-01-27T11:53:51;101810.87;;;7.93;91.31
28027;BME280;15344;52.342;-1.290;2023-01-27T11:56:17;101809.27;;;8.19;89.77
28027;BME280;15344;52.342;-1.290;2023-01-27T11:58:40;101809.63;;;8.87;88.07
28027;BME280;15344;52.342;-1.290;2023-01-27T12:01:06;101809.23;;;7.26;93.07
28027;BME280;15344;52.342;-1.290;2023-01-27T12:03:40;101812.06;;;7.96;94.18
28027;BME280;15344;52.342;-1.290;2023-01-27T12:05:54;101813.18;;;8.25;90.86
28027;BME280;15344;52.342;-1.290;2023-01-27T12:10:43;101811.07;;;9.10;88.81
28027;BME280;15344;52.342;-1.290;2023-01-27T12:13:15;101812.48;;;8.91;86.29
28027;BME280;15344;52.342;-1.290;2023-01-27T12:15:35;101813.16;;;9.26;84.88
28027;BME280;15344;52.342;-1.290;2023-01-27T12:18:02;101816.28;;;7.92;90.92
28027;BME280;15344;52.342;-1.290;2023-01-27T12:20:30;101819.11;;;8.50;89.67
28027;BME280;15344;52.342;-1.290;2023-01-27T12:22:53;101814.33;;;8.45;89.96
28027;BME280;15344;52.342;-1.290;2023-01-27T12:25:20;101813.27;;;8.19;89.29
28027;BME280;15344;52.342;-1.290;2023-01-27T12:27:48;101814.98;;;9.05;87.85
28027;BME280;15344;52.342;-1.290;2023-01-27T12:30:17;101810.60;;;9.07;87.64
28027;BME280;15344;52.342;-1.290;2023-01-27T12:32:38;101809.58;;;8.69;87.68
28027;BME280;15344;52.342;-1.290;2023-01-27T12:34:58;101808.71;;;8.15;91.73
28027;BME280;15344;52.342;-1.290;2023-01-27T12:37:28;101802.52;;;8.94;87.39
28027;BME280;15344;52.342;-1.290;2023-01-27T12:39:51;101800.89;;;8.47;90.83
28027;BME280;15344;52.342;-1.290;2023-01-27T12:44:41;101793.71;;;7.79;90.44
28027;BME280;15344;52.342;-1.290;2023-01-27T12:47:18;101793.34;;;8.24;89.43